TimeMDT,TemperatureF,Dew PointF,Humidity,Sea Level PressureIn,VisibilityMPH,Wind Direction,Wind SpeedMPH,Gust SpeedMPH,PrecipitationIn,Events,Conditions,WindDirDegrees,DateUTC
12:53 AM,57.9,32.0,37,29.82,10.0,South,13.8,-,N/A,,Clear,170,2013-04-22 06:53:00
1:53 AM,55.9,35.1,45,29.78,10.0,South,25.3,33.4,N/A,,Clear,180,2013-04-22 07:53:00
2:53 AM,53.1,37.9,57,29.75,10.0,South,26.5,34.5,N/A,,Clear,170,2013-04-22 08:53:00
3:53 AM,51.1,39.9,66,29.75,10.0,South,23.0,33.4,N/A,,Clear,170,2013-04-22 09:53:00
4:53 AM,46.9,39.9,77,29.77,10.0,SSW,9.2,-,N/A,,Clear,200,2013-04-22 10:53:00
5:53 AM,43.0,37.0,80,29.78,10.0,SSW,5.8,-,N/A,,Clear,210,2013-04-22 11:53:00
6:53 AM,44.1,37.9,79,29.78,10.0,SSW,9.2,-,N/A,,Clear,210,2013-04-22 12:53:00
7:53 AM,51.1,33.1,50,29.79,10.0,West,13.8,-,N/A,,Clear,270,2013-04-22 13:53:00
8:53 AM,55.9,33.1,42,29.78,10.0,West,13.8,-,N/A,,Clear,270,2013-04-22 14:53:00
9:53 AM,64.0,32.0,30,29.77,10.0,NNW,17.3,26.5,N/A,,Clear,340,2013-04-22 15:53:00
10:01 AM,64.4,32.0,30,29.87,10.0,North,20.7,26.5,N/A,,Clear,350,2013-04-22 16:01:00
10:53 AM,66.0,32.0,28,29.78,10.0,North,20.7,27.6,N/A,,Clear,360,2013-04-22 16:53:00
11:53 AM,68.0,32.0,26,29.77,10.0,North,18.4,28.8,N/A,,Clear,360,2013-04-22 17:53:00
12:53 PM,71.1,27.0,19,29.74,10.0,NNE,15.0,21.9,N/A,,Clear,20,2013-04-22 18:53:00
1:53 PM,70.0,27.0,20,29.75,10.0,NNE,18.4,24.2,N/A,,Mostly Cloudy,30,2013-04-22 19:53:00
2:53 PM,66.0,33.1,29,29.78,10.0,NNE,18.4,29.9,N/A,,Mostly Cloudy,30,2013-04-22 20:53:00
3:07 PM,60.8,37.4,42,29.91,2.5,NNE,44.9,54.1,N/A,,Haze,20,2013-04-22 21:07:00
3:10 PM,53.6,39.2,58,29.91,1.2,NNE,42.6,58.7,N/A,,Haze,20,2013-04-22 21:10:00
3:21 PM,44.6,39.2,81,29.94,2.0,NNE,38.0,56.4,0.00,Rain,Light Rain,20,2013-04-22 21:21:00
3:35 PM,42.8,39.2,87,29.94,3.0,NNE,35.7,51.8,0.01,,Overcast,20,2013-04-22 21:35:00
3:53 PM,42.1,36.0,79,29.92,5.0,NNE,38.0,49.5,0.01,,Haze,30,2013-04-22 21:53:00
4:53 PM,39.0,28.9,67,29.99,7.0,NNE,29.9,38.0,N/A,,Overcast,20,2013-04-22 22:53:00
5:04 PM,37.4,28.4,70,30.01,8.0,NNE,25.3,41.4,N/A,,Overcast,30,2013-04-22 23:04:00
5:53 PM,36.0,26.1,67,30.05,7.0,NNE,29.9,41.4,N/A,,Overcast,20,2013-04-22 23:53:00
6:53 PM,35.1,25.0,67,30.09,10.0,NNE,27.6,33.4,N/A,,Overcast,20,2013-04-23 00:53:00
7:53 PM,33.1,23.0,66,30.15,10.0,NNE,25.3,32.2,N/A,,Overcast,20,2013-04-23 01:53:00
8:33 PM,32.0,21.2,64,30.18,10.0,NNE,23.0,33.4,N/A,,Overcast,20,2013-04-23 02:33:00
8:53 PM,32.0,23.0,69,30.19,10.0,North,15.0,-,N/A,,Overcast,10,2013-04-23 02:53:00
9:53 PM,30.9,23.0,72,30.21,10.0,North,19.6,25.3,N/A,,Overcast,10,2013-04-23 03:53:00
10:53 PM,30.0,21.9,72,30.20,10.0,NNE,18.4,21.9,N/A,,Overcast,30,2013-04-23 04:53:00
11:16 PM,30.2,21.2,69,30.24,10.0,NNE,20.7,27.6,N/A,,Overcast,20,2013-04-23 05:16:00
11:53 PM,30.0,21.0,69,30.21,10.0,North,11.5,-,N/A,,Overcast,360,2013-04-23 05:53:00